createdAt,value
2019-04-03T00:00:19.274Z,2.00
2019-04-03T00:02:46.036Z,2.30
2019-04-03T00:05:13.152Z,2.37
2019-04-03T00:07:40.333Z,2.15
2019-04-03T00:10:08.457Z,2.10
2019-04-03T00:12:35.912Z,2.10
2019-04-03T00:15:04.782Z,2.22
2019-04-03T00:17:31.865Z,2.08
2019-04-03T00:19:59.123Z,2.10
2019-04-03T00:22:26.080Z,2.08
2019-04-03T00:24:53.220Z,2.30
2019-04-03T00:27:22.257Z,2.40
2019-04-03T00:29:51.830Z,2.20
2019-04-03T00:32:18.336Z,2.50
2019-04-03T00:34:45.202Z,2.70
2019-04-03T00:37:12.253Z,2.30
2019-04-03T00:39:39.586Z,2.45
2019-04-03T00:42:06.350Z,2.58
2019-04-03T00:44:36.632Z,2.70
2019-04-03T00:47:03.476Z,2.65
2019-04-03T00:49:30.504Z,2.62
2019-04-03T00:51:58.083Z,2.15
2019-04-03T00:54:26.463Z,2.58
2019-04-03T00:56:56.201Z,2.67
2019-04-03T00:59:23.101Z,2.90
2019-04-03T01:01:50.612Z,2.30
2019-04-03T01:04:18.294Z,2.67
2019-04-03T01:06:45.260Z,2.45
2019-04-03T01:09:12.384Z,2.50
2019-04-03T01:11:39.499Z,2.40
2019-04-03T01:14:06.471Z,2.65
2019-04-03T01:16:34.400Z,2.30
2019-04-03T01:19:01.860Z,2.35
2019-04-03T01:21:29.725Z,2.25
2019-04-03T01:23:59.058Z,2.42
2019-04-03T01:26:26.102Z,2.35
2019-04-03T01:28:52.984Z,2.33
2019-04-03T01:31:20.145Z,2.22
2019-04-03T01:33:47.253Z,2.50
2019-04-03T01:36:14.103Z,2.72
2019-04-03T01:38:41.075Z,2.47
2019-04-03T01:41:07.969Z,2.50
2019-04-03T01:43:34.815Z,2.47
2019-04-03T01:46:02.190Z,2.47
2019-04-03T01:48:29.212Z,2.83
2019-04-03T01:50:57.779Z,2.95
2019-04-03T01:53:27.235Z,3.27
2019-04-03T01:55:54.477Z,2.77
2019-04-03T01:58:21.744Z,2.62
2019-04-03T02:00:49.097Z,2.77
2019-04-03T02:03:16.596Z,3.00
2019-04-03T02:05:45.852Z,2.90
2019-04-03T02:08:14.725Z,3.25
2019-04-03T02:10:41.671Z,2.98
2019-04-03T02:13:08.722Z,3.10
2019-04-03T02:15:35.734Z,2.60
2019-04-03T02:18:03.001Z,2.65
2019-04-03T02:20:29.867Z,2.90
2019-04-03T02:22:59.650Z,2.62
2019-04-03T02:25:25.331Z,3.52
2019-04-03T02:27:52.390Z,2.75
2019-04-03T02:30:19.611Z,2.72
2019-04-03T02:32:46.723Z,2.98
2019-04-03T02:35:14.646Z,2.90
2019-04-03T02:37:42.017Z,2.80
2019-04-03T02:40:10.103Z,3.22
2019-04-03T02:42:40.546Z,3.02
2019-04-03T02:45:07.594Z,3.37
2019-04-03T02:47:35.026Z,3.22
2019-04-03T02:50:02.681Z,3.47
2019-04-03T02:52:29.599Z,3.25
2019-04-03T02:54:57.124Z,2.95
2019-04-03T02:57:24.272Z,2.85
2019-04-03T02:59:51.661Z,3.15
2019-04-03T03:02:18.882Z,2.92
2019-04-03T03:04:46.087Z,3.02
2019-04-03T03:07:13.337Z,3.15
2019-04-03T03:09:40.379Z,2.77
2019-04-03T03:12:07.855Z,2.98
2019-04-03T03:14:39.304Z,3.45
2019-04-03T03:17:05.411Z,2.75
2019-04-03T03:19:33.803Z,3.10
2019-04-03T03:22:02.410Z,3.00
2019-04-03T03:24:32.905Z,3.10
2019-04-03T03:27:00.387Z,3.47
2019-04-03T03:29:28.408Z,3.33
2019-04-03T03:32:08.222Z,2.90
2019-04-03T03:34:49.307Z,3.17
2019-04-03T03:37:00.133Z,3.37
2019-04-03T03:39:25.031Z,3.05
2019-04-03T03:41:59.208Z,3.12
2019-04-03T03:44:27.299Z,3.00
2019-04-03T03:46:59.350Z,3.02
2019-04-03T03:49:27.672Z,2.90
2019-04-03T03:51:55.199Z,2.90
2019-04-03T03:54:24.436Z,2.87
2019-04-03T03:56:52.105Z,3.60
2019-04-03T03:59:19.655Z,2.98
2019-04-03T04:01:48.682Z,2.98
2019-04-03T04:04:16.240Z,3.17
2019-04-03T04:06:43.198Z,3.30
2019-04-03T04:09:10.311Z,3.10
2019-04-03T04:11:38.365Z,3.27
2019-04-03T04:14:05.450Z,3.05
2019-04-03T04:16:36.973Z,2.90
2019-04-03T04:19:03.939Z,3.20
2019-04-03T04:21:31.369Z,3.35
2019-04-03T04:23:58.914Z,3.10
2019-04-03T04:26:26.416Z,2.90
2019-04-03T04:28:53.890Z,3.00
2019-04-03T04:31:20.991Z,3.17
2019-04-03T04:33:48.369Z,2.90
2019-04-03T04:36:15.456Z,2.87
2019-04-03T04:38:42.888Z,3.25
2019-04-03T04:41:09.772Z,3.20
2019-04-03T04:43:37.644Z,2.90
2019-04-03T04:46:05.355Z,3.10
2019-04-03T04:48:32.225Z,3.30
2019-04-03T04:50:59.308Z,3.40
2019-04-03T04:53:29.269Z,3.45
2019-04-03T04:55:54.985Z,3.20
2019-04-03T04:58:22.449Z,3.50
2019-04-03T05:00:50.671Z,3.12
2019-04-03T05:03:18.042Z,3.50
2019-04-03T05:05:45.070Z,3.37
2019-04-03T05:08:12.743Z,3.55
2019-04-03T05:10:39.625Z,3.60
2019-04-03T05:13:06.559Z,3.50
2019-04-03T05:15:33.572Z,3.40
2019-04-03T05:18:01.202Z,3.52
2019-04-03T05:20:28.058Z,3.45
2019-04-03T05:22:55.738Z,4.30
2019-04-03T05:25:22.825Z,4.58
2019-04-03T05:27:50.244Z,4.37
2019-04-03T05:30:32.237Z,4.00
2019-04-03T05:32:59.613Z,3.92
2019-04-03T05:35:26.813Z,4.10
2019-04-03T05:37:53.859Z,3.35
2019-04-03T05:40:20.762Z,3.42
2019-04-03T05:42:47.904Z,4.00
2019-04-03T05:45:14.697Z,4.30
2019-04-03T05:47:41.533Z,4.00
2019-04-03T05:50:08.541Z,4.17
2019-04-03T05:52:35.800Z,4.60
2019-04-03T05:55:05.322Z,4.28
2019-04-03T05:57:32.229Z,4.47
2019-04-03T06:00:01.856Z,4.25
2019-04-03T06:02:28.590Z,4.92
2019-04-03T06:04:55.710Z,4.37
2019-04-03T06:07:22.739Z,4.78
2019-04-03T06:09:49.585Z,4.30
2019-04-03T06:12:18.742Z,4.65
2019-04-03T06:14:45.525Z,4.50
2019-04-03T06:17:12.421Z,4.72
2019-04-03T06:19:39.898Z,4.85
2019-04-03T06:22:09.845Z,4.75
2019-04-03T06:24:35.967Z,4.53
2019-04-03T06:27:03.911Z,4.40
2019-04-03T06:29:30.792Z,4.60
2019-04-03T06:31:58.461Z,5.03
2019-04-03T06:34:25.915Z,4.45
2019-04-03T06:36:53.107Z,4.90
2019-04-03T06:39:22.316Z,5.05
2019-04-03T06:41:48.885Z,5.00
2019-04-03T06:44:15.706Z,4.83
2019-04-03T06:46:42.887Z,5.20
2019-04-03T06:49:11.754Z,5.35
2019-04-03T06:51:39.066Z,5.28
2019-04-03T06:54:07.848Z,4.87
2019-04-03T06:56:34.799Z,4.60
2019-04-03T06:59:02.220Z,5.10
2019-04-03T07:01:30.638Z,5.10
2019-04-03T07:03:57.693Z,5.40
2019-04-03T07:06:24.699Z,5.70
2019-04-03T07:08:51.575Z,5.08
2019-04-03T07:11:23.756Z,5.67
2019-04-03T07:13:49.768Z,5.83
2019-04-03T07:16:16.528Z,5.30
2019-04-03T07:18:43.785Z,5.47
2019-04-03T07:21:10.938Z,5.35
2019-04-03T07:23:38.014Z,5.45
2019-04-03T07:26:05.646Z,5.83
2019-04-03T07:28:34.495Z,5.10
2019-04-03T07:31:02.198Z,5.65
2019-04-03T07:33:29.463Z,4.92
2019-04-03T07:35:56.409Z,5.10
2019-04-03T07:38:23.491Z,4.70
2019-04-03T07:40:51.991Z,5.28
2019-04-03T07:43:20.361Z,5.12
2019-04-03T07:45:47.216Z,5.17
2019-04-03T07:48:14.405Z,5.10
2019-04-03T07:50:42.031Z,4.50
2019-04-03T07:53:09.351Z,4.00
2019-04-03T07:55:38.199Z,4.30
2019-04-03T07:58:05.095Z,4.08
2019-04-03T08:00:32.415Z,3.40
2019-04-03T08:02:59.462Z,3.85
2019-04-03T08:05:30.995Z,3.02
2019-04-03T08:07:58.163Z,3.45
2019-04-03T08:10:25.411Z,3.20
2019-04-03T08:12:52.197Z,3.08
2019-04-03T08:15:19.314Z,3.10
2019-04-03T08:17:49.194Z,3.33
2019-04-03T08:20:16.247Z,3.12
2019-04-03T08:22:43.007Z,3.17
2019-04-03T08:25:11.825Z,3.62
2019-04-03T08:27:39.446Z,3.00
2019-04-03T08:30:08.637Z,2.85
2019-04-03T08:32:36.343Z,3.17
2019-04-03T08:35:18.720Z,3.00
2019-04-03T08:37:35.292Z,3.15
2019-04-03T08:40:05.303Z,3.70
2019-04-03T08:42:32.914Z,3.12
2019-04-03T08:45:00.229Z,2.70
2019-04-03T08:47:27.081Z,3.05
2019-04-03T08:49:56.387Z,2.92
2019-04-03T08:52:22.859Z,2.72
2019-04-03T08:54:50.336Z,2.37
2019-04-03T08:57:19.927Z,2.60
2019-04-03T08:59:46.345Z,2.85
2019-04-03T09:02:13.912Z,2.90
2019-04-03T09:04:41.455Z,2.95
2019-04-03T09:07:08.323Z,2.77
2019-04-03T09:09:35.740Z,3.10
2019-04-03T09:12:03.174Z,3.17
2019-04-03T09:14:30.382Z,2.90
2019-04-03T09:17:03.540Z,3.08
2019-04-03T09:19:32.744Z,3.20
2019-04-03T09:22:00.515Z,2.83
2019-04-03T09:24:29.628Z,3.20
2019-04-03T09:26:57.070Z,4.12
2019-04-03T09:29:24.182Z,3.42
2019-04-03T09:31:52.495Z,3.02
2019-04-03T09:34:20.673Z,2.77
2019-04-03T09:36:48.115Z,2.87
2019-04-03T09:39:15.133Z,2.80
2019-04-03T09:41:42.067Z,2.92
2019-04-03T09:44:11.374Z,3.10
2019-04-03T09:46:38.164Z,2.92
2019-04-03T09:49:05.730Z,3.33
2019-04-03T09:51:34.345Z,3.10
2019-04-03T09:54:01.433Z,3.62
2019-04-03T09:56:31.059Z,3.12
2019-04-03T09:58:58.142Z,3.52
2019-04-03T10:01:25.365Z,5.72
2019-04-03T10:03:55.068Z,5.35
2019-04-03T10:06:21.461Z,8.38
2019-04-03T10:08:48.628Z,3.72
2019-04-03T10:11:17.700Z,4.30
2019-04-03T10:13:44.655Z,3.80
2019-04-03T10:16:11.410Z,3.12
2019-04-03T10:18:39.074Z,3.98
2019-04-03T10:21:08.067Z,4.80
2019-04-03T10:23:34.940Z,6.53
2019-04-03T10:26:02.299Z,5.22
2019-04-03T10:28:29.213Z,5.67
2019-04-03T10:30:57.169Z,5.70
2019-04-03T10:33:24.428Z,5.85
2019-04-03T10:35:51.548Z,5.60
2019-04-03T10:38:19.041Z,4.00
2019-04-03T10:40:46.553Z,3.20
2019-04-03T10:43:13.899Z,2.60
2019-04-03T10:45:41.660Z,2.12
2019-04-03T10:48:09.030Z,1.70
2019-04-03T10:50:37.885Z,1.67
2019-04-03T10:53:05.515Z,1.60
2019-04-03T10:55:32.628Z,1.67
2019-04-03T10:58:01.874Z,1.60
2019-04-03T11:00:29.439Z,2.02
2019-04-03T11:02:56.594Z,2.55
2019-04-03T11:05:23.823Z,2.15
2019-04-03T11:07:53.025Z,2.10
2019-04-03T11:10:23.362Z,1.40
2019-04-03T11:12:49.004Z,1.95
2019-04-03T11:15:16.953Z,1.57
2019-04-03T11:17:44.615Z,1.75
2019-04-03T11:20:14.170Z,1.65
2019-04-03T11:22:43.298Z,2.10
2019-04-03T11:25:15.298Z,2.42
2019-04-03T11:27:44.660Z,2.50
2019-04-03T11:30:17.635Z,2.20
2019-04-03T11:32:43.715Z,1.98
2019-04-03T11:35:15.017Z,2.00
2019-04-03T11:37:42.739Z,1.80
2019-04-03T11:40:11.772Z,1.90
2019-04-03T11:42:38.958Z,1.77
2019-04-03T11:45:09.197Z,2.05
2019-04-03T11:47:36.454Z,1.98
2019-04-03T11:50:07.995Z,2.10
2019-04-03T11:52:35.290Z,1.80
2019-04-03T11:55:04.724Z,1.80
2019-04-03T11:57:31.912Z,1.90
2019-04-03T11:59:59.118Z,1.85
2019-04-03T12:02:26.653Z,1.90
2019-04-03T12:04:53.474Z,1.60
2019-04-03T12:07:20.710Z,1.40
2019-04-03T12:09:50.491Z,1.20
2019-04-03T12:12:17.533Z,1.10
2019-04-03T12:14:44.880Z,1.30
2019-04-03T12:17:12.397Z,0.90
2019-04-03T12:19:39.465Z,1.00
2019-04-03T12:22:06.884Z,1.22
2019-04-03T12:24:33.982Z,1.52
2019-04-03T12:27:01.038Z,1.30
2019-04-03T12:29:30.300Z,2.60
2019-04-03T12:31:58.567Z,2.45
2019-04-03T12:34:25.582Z,1.30
2019-04-03T12:36:52.935Z,1.30
2019-04-03T12:39:27.879Z,1.80
2019-04-03T12:41:55.501Z,1.35
2019-04-03T12:44:23.415Z,1.62
2019-04-03T12:46:51.521Z,1.40
2019-04-03T12:49:20.054Z,1.10
2019-04-03T12:51:47.989Z,1.35
2019-04-03T12:54:15.381Z,1.32
2019-04-03T12:56:42.475Z,1.40
2019-04-03T12:59:10.013Z,1.20
2019-04-03T13:01:37.789Z,1.27
2019-04-03T13:04:05.745Z,1.15
2019-04-03T13:06:32.757Z,0.95
2019-04-03T13:09:01.726Z,0.90
2019-04-03T13:11:29.271Z,0.88
2019-04-03T13:13:57.266Z,0.90
2019-04-03T13:16:24.789Z,1.05
2019-04-03T13:18:52.210Z,0.88
2019-04-03T13:21:19.164Z,1.10
2019-04-03T13:23:46.339Z,0.80
2019-04-03T13:26:14.362Z,1.10
2019-04-03T13:28:42.070Z,1.00
2019-04-03T13:31:09.690Z,0.78
2019-04-03T13:33:38.710Z,0.82
2019-04-03T13:36:06.259Z,0.65
2019-04-03T13:38:33.164Z,0.82
2019-04-03T13:41:04.628Z,0.90
2019-04-03T13:43:31.620Z,1.45
2019-04-03T13:45:59.029Z,5.85
2019-04-03T13:48:26.416Z,5.87
2019-04-03T13:50:55.172Z,1.62
2019-04-03T13:53:25.381Z,1.45
2019-04-03T13:55:51.492Z,2.00
2019-04-03T13:58:22.129Z,4.25
2019-04-03T14:00:58.618Z,4.30
2019-04-03T14:03:19.129Z,4.83
2019-04-03T14:05:47.053Z,1.60
2019-04-03T14:08:14.354Z,2.33
2019-04-03T14:10:41.161Z,1.30
2019-04-03T14:13:10.866Z,3.15
2019-04-03T14:15:41.711Z,4.12
2019-04-03T14:18:09.417Z,9.68
2019-04-03T14:20:36.595Z,2.27
2019-04-03T14:23:04.742Z,2.85
2019-04-03T14:25:37.092Z,9.03
2019-04-03T14:28:02.848Z,11.20
2019-04-03T14:30:32.363Z,4.78
2019-04-03T14:33:01.913Z,5.00
2019-04-03T14:35:50.375Z,2.80
2019-04-03T14:37:59.889Z,3.98
2019-04-03T14:40:27.248Z,6.17
2019-04-03T14:42:57.837Z,3.52
2019-04-03T14:45:26.365Z,1.60
2019-04-03T14:47:54.878Z,1.87
2019-04-03T14:50:22.457Z,1.67
2019-04-03T14:52:50.574Z,4.40
2019-04-03T14:55:20.755Z,4.12
2019-04-03T14:57:46.669Z,3.50
2019-04-03T15:00:26.439Z,1.90
2019-04-03T15:02:43.619Z,2.87
2019-04-03T15:05:11.030Z,1.52
2019-04-03T15:07:38.553Z,1.60
2019-04-03T15:10:07.407Z,1.85
2019-04-03T15:12:40.699Z,3.87
2019-04-03T15:15:09.697Z,3.02
2019-04-03T15:17:38.944Z,1.55
2019-04-03T15:20:10.400Z,2.75
2019-04-03T15:22:37.586Z,2.08
2019-04-03T15:25:06.710Z,2.30
2019-04-03T15:27:33.695Z,2.30
2019-04-03T15:30:01.066Z,2.52
2019-04-03T15:32:28.640Z,2.27
2019-04-03T15:35:00.983Z,2.27
2019-04-03T15:37:28.159Z,2.42
2019-04-03T15:39:58.237Z,1.70
2019-04-03T15:42:24.685Z,1.60
2019-04-03T15:44:52.502Z,1.85
2019-04-03T15:47:34.324Z,6.58
2019-04-03T15:49:51.524Z,3.87
2019-04-03T15:52:19.184Z,1.77
2019-04-03T15:54:46.365Z,1.60
2019-04-03T15:57:13.640Z,1.57
2019-04-03T15:59:40.931Z,1.10
2019-04-03T16:02:10.505Z,1.30
2019-04-03T16:04:37.204Z,1.37
2019-04-03T16:07:05.115Z,1.30
2019-04-03T16:09:35.199Z,1.10
2019-04-03T16:12:04.162Z,1.07
2019-04-03T16:14:31.884Z,0.95
2019-04-03T16:17:01.719Z,0.80
2019-04-03T16:19:28.169Z,1.00
2019-04-03T16:21:57.368Z,1.00
2019-04-03T16:24:24.830Z,0.85
2019-04-03T16:26:53.175Z,0.98
2019-04-03T16:29:22.255Z,1.10
2019-04-03T16:31:54.122Z,1.20
2019-04-03T16:34:23.034Z,1.42
2019-04-03T16:36:50.803Z,2.40
2019-04-03T16:39:19.181Z,1.50
2019-04-03T16:41:46.650Z,6.33
2019-04-03T16:44:13.512Z,1.55
2019-04-03T16:46:42.123Z,6.37
2019-04-03T16:49:11.127Z,9.83
2019-04-03T16:51:40.554Z,4.50
2019-04-03T16:54:10.345Z,1.85
2019-04-03T16:56:38.636Z,3.47
2019-04-03T16:59:07.312Z,5.03
2019-04-03T17:01:34.944Z,2.37
2019-04-03T17:04:03.913Z,1.60
2019-04-03T17:06:30.814Z,1.77
2019-04-03T17:08:58.641Z,1.70
2019-04-03T17:11:26.337Z,1.47
2019-04-03T17:13:54.292Z,1.50
2019-04-03T17:16:21.407Z,1.80
2019-04-03T17:18:48.175Z,2.00
2019-04-03T17:21:15.325Z,1.47
2019-04-03T17:23:44.828Z,1.57
2019-04-03T17:26:11.335Z,1.15
2019-04-03T17:28:40.522Z,2.12
2019-04-03T17:31:06.851Z,2.80
2019-04-03T17:33:35.627Z,2.08
2019-04-03T17:36:03.291Z,3.58
2019-04-03T17:38:32.583Z,2.60
2019-04-03T17:40:59.590Z,3.45
2019-04-03T17:43:28.526Z,6.37
2019-04-03T17:45:55.389Z,3.02
2019-04-03T17:48:22.835Z,2.50
2019-04-03T17:50:51.425Z,2.52
2019-04-03T17:53:18.880Z,2.47
2019-04-03T17:55:46.081Z,5.62
2019-04-03T17:58:12.851Z,5.97
2019-04-03T18:00:41.315Z,2.75
2019-04-03T18:03:08.566Z,2.70
2019-04-03T18:05:36.601Z,6.20
2019-04-03T18:08:03.489Z,3.92
2019-04-03T18:10:31.088Z,5.58
2019-04-03T18:12:58.013Z,2.95
2019-04-03T18:15:27.223Z,4.08
2019-04-03T18:17:54.689Z,3.60
2019-04-03T18:20:23.409Z,3.60
2019-04-03T18:22:55.284Z,2.30
2019-04-03T18:25:22.571Z,7.78
2019-04-03T18:27:49.497Z,8.25
2019-04-03T18:30:18.760Z,6.85
2019-04-03T18:32:46.038Z,3.20
2019-04-03T18:35:14.426Z,2.50
2019-04-03T18:37:41.534Z,4.03
2019-04-03T18:40:10.201Z,1.70
2019-04-03T18:42:37.503Z,2.20
2019-04-03T18:45:05.591Z,2.10
2019-04-03T18:47:41.101Z,1.42
2019-04-03T18:50:05.371Z,1.35
2019-04-03T18:52:34.992Z,1.20
2019-04-03T18:55:05.439Z,2.42
2019-04-03T18:57:32.513Z,2.87
2019-04-03T19:00:00.678Z,1.80
2019-04-03T19:02:28.272Z,2.22
2019-04-03T19:05:02.008Z,1.90
2019-04-03T19:07:24.397Z,3.10
2019-04-03T19:09:52.458Z,2.62
2019-04-03T19:12:19.809Z,1.40
2019-04-03T19:14:48.971Z,1.72
2019-04-03T19:17:20.427Z,2.47
2019-04-03T19:19:47.396Z,1.70
2019-04-03T19:22:19.116Z,1.60
2019-04-03T19:24:47.098Z,1.82
2019-04-03T19:27:14.428Z,0.90
2019-04-03T19:29:44.435Z,0.80
2019-04-03T19:32:12.198Z,1.00
2019-04-03T19:34:40.060Z,1.02
2019-04-03T19:37:06.919Z,1.50
2019-04-03T19:39:33.839Z,1.20
2019-04-03T19:42:00.843Z,2.27
2019-04-03T19:44:27.715Z,1.40
2019-04-03T19:46:54.978Z,1.40
2019-04-03T19:49:22.439Z,2.02
2019-04-03T19:51:49.524Z,5.75
2019-04-03T19:54:17.516Z,2.10
2019-04-03T19:56:45.180Z,1.67
2019-04-03T19:59:14.567Z,2.77
2019-04-03T20:01:41.867Z,1.10
2019-04-03T20:04:10.097Z,1.10
2019-04-03T20:06:37.667Z,0.90
2019-04-03T20:09:08.381Z,7.12
2019-04-03T20:11:35.934Z,1.57
2019-04-03T20:14:03.925Z,1.40
2019-04-03T20:16:31.006Z,1.50
2019-04-03T20:18:58.211Z,1.32
2019-04-03T20:21:25.402Z,1.55
2019-04-03T20:23:52.439Z,8.10
2019-04-03T20:26:19.806Z,4.92
2019-04-03T20:28:47.335Z,2.10
2019-04-03T20:31:14.888Z,2.00
2019-04-03T20:33:42.888Z,2.10
2019-04-03T20:36:10.235Z,3.70
2019-04-03T20:38:37.485Z,2.37
2019-04-03T20:41:04.863Z,1.80
2019-04-03T20:43:32.291Z,5.40
2019-04-03T20:45:59.241Z,3.10
2019-04-03T20:48:28.761Z,2.00
2019-04-03T20:50:56.458Z,1.90
2019-04-03T20:53:24.082Z,4.75
2019-04-03T20:55:51.509Z,3.70
2019-04-03T20:58:19.456Z,2.47
2019-04-03T21:00:49.427Z,2.42
2019-04-03T21:03:16.217Z,2.00
2019-04-03T21:05:43.251Z,1.50
2019-04-03T21:08:10.341Z,1.42
2019-04-03T21:10:37.307Z,1.00
2019-04-03T21:13:04.612Z,1.32
2019-04-03T21:15:32.180Z,1.47
2019-04-03T21:18:00.106Z,1.42
2019-04-03T21:20:27.076Z,1.80
2019-04-03T21:22:54.956Z,1.80
2019-04-03T21:25:22.169Z,1.95
2019-04-03T21:27:49.549Z,2.17
2019-04-03T21:30:17.681Z,6.00
2019-04-03T21:32:44.612Z,7.90
2019-04-03T21:35:13.539Z,1.70
2019-04-03T21:37:40.700Z,1.40
2019-04-03T21:40:08.324Z,1.50
2019-04-03T21:42:35.575Z,1.72
2019-04-03T21:45:07.586Z,3.20
2019-04-03T21:47:35.029Z,4.47
2019-04-03T21:50:03.873Z,3.70
2019-04-03T21:52:33.741Z,1.85
2019-04-03T21:55:00.925Z,2.02
2019-04-03T21:57:30.997Z,2.37
2019-04-03T21:59:58.802Z,2.75
2019-04-03T22:02:25.824Z,2.20
2019-04-03T22:04:53.956Z,1.80
2019-04-03T22:07:24.004Z,1.75
2019-04-03T22:09:50.856Z,1.52
2019-04-03T22:12:17.756Z,1.65
2019-04-03T22:14:45.074Z,1.60
2019-04-03T22:17:15.403Z,1.67
2019-04-03T22:19:42.171Z,1.50
2019-04-03T22:22:09.776Z,1.52
2019-04-03T22:24:37.748Z,1.70
2019-04-03T22:27:05.821Z,1.40
2019-04-03T22:29:32.598Z,1.37
2019-04-03T22:32:00.099Z,1.52
2019-04-03T22:34:27.954Z,1.70
2019-04-03T22:36:56.572Z,1.85
2019-04-03T22:39:23.779Z,1.50
2019-04-03T22:41:51.001Z,1.40
2019-04-03T22:44:19.067Z,1.80
2019-04-03T22:46:46.399Z,1.70
2019-04-03T22:49:13.237Z,1.60
2019-04-03T22:51:40.156Z,1.80
2019-04-03T22:54:07.570Z,1.82
2019-04-03T22:56:34.604Z,1.87
2019-04-03T22:59:01.741Z,1.80
2019-04-03T23:01:29.864Z,1.80
2019-04-03T23:03:58.104Z,2.00
2019-04-03T23:06:25.370Z,1.75
2019-04-03T23:08:53.881Z,1.70
2019-04-03T23:11:23.983Z,1.75
2019-04-03T23:13:51.254Z,1.50
2019-04-03T23:16:18.714Z,1.65
2019-04-03T23:18:47.524Z,1.45
2019-04-03T23:21:15.234Z,1.42
2019-04-03T23:23:44.083Z,1.80
2019-04-03T23:26:11.417Z,1.50
2019-04-03T23:28:40.581Z,1.75
2019-04-03T23:31:08.228Z,1.50
2019-04-03T23:33:35.965Z,1.72
2019-04-03T23:36:04.568Z,1.70
2019-04-03T23:38:37.302Z,1.82
2019-04-03T23:41:06.170Z,2.55
2019-04-03T23:43:34.295Z,1.98
2019-04-03T23:46:02.611Z,1.80
2019-04-03T23:48:29.763Z,2.10
2019-04-03T23:50:57.260Z,1.72
2019-04-03T23:53:26.894Z,2.20
2019-04-03T23:55:57.975Z,1.85
2019-04-03T23:58:26.749Z,2.10
